Time;durP1;ratioP1;P1;durP2;ratioP2;P2;SDS_P1;SDS_P2;PMS_P1;PMS_P2;Temp;Humidity;BMP_temperature;BMP_pressure;BME280_temperature;BME280_humidity;BME280_pressure;Samples;Min_cycle;Max_cycle;Signal;HPM_P1;HPM_P2
2022/08/27 00:01:55;;;;;;;4.68;3.30;;;23.90;73.20;;;;;;2337427;55;21000;-69
2022/08/27 00:04:21;;;;;;;4.78;3.40;;;23.80;73.10;;;;;;2265943;56;20948;-70
2022/08/27 00:06:48;;;;;;;4.37;3.35;;;23.90;73.20;;;;;;2265085;55;20952;-70
2022/08/27 00:09:14;;;;;;;5.72;4.00;;;23.80;73.10;;;;;;2266542;55;21873;-70
2022/08/27 00:11:50;;;;;;;5.05;3.55;;;23.90;73.30;;;;;;2266212;55;21989;-70
2022/08/27 00:14:16;;;;;;;8.38;3.97;;;23.80;73.20;;;;;;2267208;55;20952;-71
2022/08/27 00:16:42;;;;;;;5.10;3.87;;;23.80;73.20;;;;;;2267274;55;20961;-70
2022/08/27 00:19:10;;;;;;;5.37;3.95;;;23.90;73.30;;;;;;2262054;55;20955;-70
2022/08/27 00:21:37;;;;;;;7.97;4.32;;;23.90;73.30;;;;;;2372610;55;20940;-70
2022/08/27 00:24:03;;;;;;;5.35;3.72;;;23.90;73.30;;;;;;2267639;55;20976;-71
2022/08/27 00:26:34;;;;;;;4.95;4.00;;;23.90;73.30;;;;;;2263086;55;21040;-71
2022/08/27 00:29:00;;;;;;;5.93;4.07;;;23.90;73.30;;;;;;2266097;55;21027;-70
2022/08/27 00:31:26;;;;;;;5.18;4.10;;;23.90;73.20;;;;;;2266390;55;20979;-71
2022/08/27 00:33:53;;;;;;;4.95;3.72;;;23.90;73.20;;;;;;2266383;55;21634;-71
2022/08/27 00:36:20;;;;;;;5.70;3.90;;;23.90;73.20;;;;;;2267881;55;20949;-71
2022/08/27 00:38:47;;;;;;;6.55;3.97;;;23.90;73.10;;;;;;2316450;55;21003;-70
2022/08/27 00:41:14;;;;;;;6.80;5.18;;;23.90;73.10;;;;;;2369100;55;24847;-70
2022/08/27 00:43:56;;;;;;;7.00;4.80;;;23.90;73.10;;;;;;2272560;55;20995;-71
2022/08/27 00:46:51;;;;;;;6.57;4.93;;;23.90;72.50;;;;;;2496626;55;20963;-70
2022/08/27 00:49:39;;;;;;;5.53;4.15;;;23.90;72.60;;;;;;2307496;55;20935;-69
2022/08/27 00:52:27;;;;;;;6.03;4.28;;;23.90;72.50;;;;;;2264433;55;21044;-70
2022/08/27 00:55:02;;;;;;;6.53;5.03;;;23.90;72.40;;;;;;2268581;55;20992;-70
2022/08/27 00:57:30;;;;;;;6.47;4.65;;;23.90;73.00;;;;;;2265946;55;21019;-71
2022/08/27 00:59:56;;;;;;;5.35;4.18;;;23.90;72.90;;;;;;2265817;55;21492;-70
2022/08/27 01:02:29;;;;;;;5.68;4.37;;;23.90;73.00;;;;;;2496418;55;20939;-71
2022/08/27 01:05:11;;;;;;;6.78;4.72;;;23.90;72.80;;;;;;2305993;55;20984;-70
2022/08/27 01:07:39;;;;;;;6.32;4.50;;;23.90;72.80;;;;;;2267115;55;21527;-69
2022/08/27 01:10:08;;;;;;;6.30;4.35;;;23.90;72.80;;;;;;2341646;55;20952;-72
2022/08/27 01:12:34;;;;;;;6.78;4.00;;;23.90;72.70;;;;;;2265628;55;20944;-71
2022/08/27 01:15:02;;;;;;;6.20;4.80;;;23.80;72.60;;;;;;2265905;55;21036;-71
2022/08/27 01:17:30;;;;;;;7.07;5.32;;;23.80;72.60;;;;;;2267786;55;21375;-70
2022/08/27 01:19:59;;;;;;;7.72;5.10;;;23.80;72.70;;;;;;2266757;55;20999;-70
2022/08/27 01:25:57;;;;;;;6.60;4.78;;;23.80;72.70;;;;;;2496948;55;21787;-70
2022/08/27 01:28:24;;;;;;;5.90;4.35;;;23.80;71.60;;;;;;2245511;56;20975;-70
2022/08/27 01:30:50;;;;;;;6.95;4.68;;;23.80;72.70;;;;;;2268595;55;21103;-70
2022/08/27 01:33:18;;;;;;;5.47;4.50;;;23.80;72.80;;;;;;2266777;55;20944;-71
2022/08/27 01:35:49;;;;;;;6.70;4.93;;;23.80;72.80;;;;;;2266703;55;21044;-69
2022/08/27 01:38:16;;;;;;;6.37;4.60;;;23.80;72.90;;;;;;2496433;55;21040;-69
2022/08/27 01:40:45;;;;;;;6.45;4.82;;;23.70;73.50;;;;;;2261456;55;20960;-71
2022/08/27 01:43:12;;;;;;;6.07;4.60;;;23.70;72.70;;;;;;2265704;55;20975;-70
2022/08/27 01:45:43;;;;;;;7.07;4.97;;;23.70;72.80;;;;;;2266844;55;21075;-70
2022/08/27 01:48:09;;;;;;;6.47;5.12;;;23.70;72.80;;;;;;2496482;55;20996;-71
2022/08/27 01:50:37;;;;;;;6.97;4.60;;;23.70;72.80;;;;;;2341770;55;21927;-69
2022/08/27 01:53:13;;;;;;;6.82;5.15;;;23.70;72.70;;;;;;2264034;56;21759;-70
2022/08/27 01:55:42;;;;;;;6.25;4.53;;;23.70;72.50;;;;;;2266278;55;21479;-70
2022/08/27 01:58:09;;;;;;;6.03;4.65;;;23.70;72.80;;;;;;2341092;55;20979;-70
2022/08/27 02:00:39;;;;;;;6.70;5.03;;;23.70;72.80;;;;;;2266541;55;21008;-70
2022/08/27 02:03:06;;;;;;;8.05;6.22;;;23.70;72.70;;;;;;2267186;55;20968;-70
2022/08/27 02:05:33;;;;;;;6.82;5.32;;;23.70;72.80;;;;;;2264092;55;21338;-70
2022/08/27 02:07:59;;;;;;;6.28;5.20;;;23.70;72.90;;;;;;2270052;55;20956;-70
2022/08/27 02:10:28;;;;;;;7.07;5.68;;;23.60;72.80;;;;;;2265891;56;20983;-71
2022/08/27 02:12:55;;;;;;;8.68;5.62;;;23.70;72.90;;;;;;2266576;55;20992;-71
2022/08/27 02:15:23;;;;;;;7.12;5.22;;;23.60;72.80;;;;;;2266828;55;21015;-71
2022/08/27 02:17:49;;;;;;;7.45;4.68;;;23.70;73.00;;;;;;2267382;55;21036;-69
2022/08/27 02:20:16;;;;;;;6.43;5.53;;;23.70;73.00;;;;;;2281714;55;21874;-70
2022/08/27 02:22:42;;;;;;;8.88;5.00;;;23.60;72.90;;;;;;2473408;55;21793;-71
2022/08/27 02:25:09;;;;;;;6.70;4.85;;;23.70;73.00;;;;;;2270848;55;20940;-70
2022/08/27 02:27:35;;;;;;;5.68;4.30;;;23.70;73.00;;;;;;2261173;55;20995;-69
2022/08/27 02:30:01;;;;;;;6.15;4.28;;;23.60;72.90;;;;;;2264841;55;20932;-69
2022/08/27 02:32:28;;;;;;;7.25;4.78;;;23.70;72.90;;;;;;2266143;55;20984;-70
2022/08/27 02:34:55;;;;;;;6.37;4.45;;;23.60;72.70;;;;;;2321567;55;21012;-69
2022/08/27 02:37:24;;;;;;;5.90;4.30;;;23.60;72.80;;;;;;2321587;55;21011;-70
2022/08/27 02:39:50;;;;;;;6.10;3.95;;;23.60;72.80;;;;;;2266544;55;21737;-70
2022/08/27 02:42:17;;;;;;;6.32;4.35;;;23.60;72.80;;;;;;2334303;55;21047;-70
2022/08/27 02:44:45;;;;;;;5.78;4.05;;;23.60;72.80;;;;;;2289668;55;21016;-70
2022/08/27 02:47:15;;;;;;;5.60;3.62;;;23.60;72.80;;;;;;2426048;55;21449;-69
2022/08/27 02:49:43;;;;;;;5.60;4.05;;;23.50;72.70;;;;;;2265681;55;20960;-71
2022/08/27 02:52:09;;;;;;;6.82;4.65;;;23.50;72.70;;;;;;2488125;55;21119;-70
2022/08/27 02:54:37;;;;;;;5.78;3.72;;;23.50;72.60;;;;;;2262771;55;20960;-71
2022/08/27 02:57:03;;;;;;;6.43;4.50;;;23.50;72.60;;;;;;2271136;55;21081;-70
2022/08/27 02:59:31;;;;;;;5.18;4.25;;;23.50;72.60;;;;;;2264868;56;20944;-71
2022/08/27 03:01:58;;;;;;;6.45;4.30;;;23.50;72.70;;;;;;2266206;55;21527;-70
2022/08/27 03:04:26;;;;;;;6.30;4.60;;;23.50;72.70;;;;;;2423631;55;21035;-70
2022/08/27 03:06:53;;;;;;;6.25;4.40;;;23.50;72.80;;;;;;2266568;55;20947;-71
2022/08/27 03:09:20;;;;;;;6.47;3.83;;;23.50;72.90;;;;;;2266075;55;21050;-69
2022/08/27 03:12:08;;;;;;;5.32;3.67;;;23.50;72.90;;;;;;2293475;55;20937;-69
2022/08/27 03:14:34;;;;;;;6.10;4.47;;;23.50;72.20;;;;;;2265205;55;21118;-70
2022/08/27 03:18:17;;;;;;;5.82;4.20;;;23.50;72.90;;;;;;2266524;55;20960;-69
2022/08/27 03:20:44;;;;;;;5.33;3.67;;;23.40;72.80;;;;;;2269588;55;20976;-71
2022/08/27 03:23:11;;;;;;;5.60;3.65;;;23.50;72.90;;;;;;2264660;55;21028;-70
2022/08/27 03:25:37;;;;;;;5.12;3.92;;;23.50;72.90;;;;;;2259845;55;20920;-70
2022/08/27 03:28:04;;;;;;;4.82;3.60;;;23.50;73.00;;;;;;2263025;55;21155;-70
2022/08/27 03:30:30;;;;;;;5.78;4.25;;;23.40;72.90;;;;;;2265762;55;20987;-71
2022/08/27 03:32:56;;;;;;;5.80;4.07;;;23.40;73.00;;;;;;2267018;55;20939;-70
2022/08/27 03:35:23;;;;;;;5.65;4.05;;;23.40;73.10;;;;;;2261279;55;21031;-70
2022/08/27 03:37:49;;;;;;;5.55;4.10;;;23.40;73.10;;;;;;2265760;55;21044;-70
2022/08/27 03:40:15;;;;;;;6.55;4.40;;;23.40;73.20;;;;;;2266651;55;21334;-70
2022/08/27 03:42:42;;;;;;;5.90;4.28;;;23.40;73.30;;;;;;2266043;55;20980;-70
2022/08/27 03:45:36;;;;;;;6.85;4.75;;;23.40;73.30;;;;;;2264920;55;21096;-71
2022/08/27 03:48:04;;;;;;;5.90;4.40;;;23.50;72.70;;;;;;2267588;55;20959;-71
2022/08/27 03:50:32;;;;;;;5.20;4.00;;;23.50;73.40;;;;;;2266165;55;21007;-70
2022/08/27 03:56:20;;;;;;;5.53;3.72;;;23.50;72.80;;;;;;2266601;55;20965;-71
2022/08/27 03:58:46;;;;;;;5.30;4.10;;;23.50;73.50;;;;;;2265138;55;21008;-70
2022/08/27 04:01:15;;;;;;;6.65;4.25;;;23.50;73.50;;;;;;2266985;56;20913;-69
2022/08/27 04:03:42;;;;;;;5.30;4.10;;;23.50;73.50;;;;;;2262498;56;21139;-70
2022/08/27 04:06:08;;;;;;;6.07;4.85;;;23.50;73.50;;;;;;2266582;55;21468;-70
2022/08/27 04:09:04;;;;;;;6.10;4.68;;;23.50;73.40;;;;;;2336037;55;21373;-71
2022/08/27 04:11:35;;;;;;;5.93;3.58;;;23.50;72.80;;;;;;2483408;55;20944;-71
2022/08/27 04:17:30;;;;;;;4.15;3.15;;;23.60;72.80;;;;;;2263964;55;21830;-71
2022/08/27 04:20:27;;;;;;;4.57;3.70;;;23.60;73.40;;;;;;2254204;55;21002;-70
2022/08/27 04:23:04;;;;;;;5.50;3.65;;;23.60;72.70;;;;;;2265477;55;21830;-70
2022/08/27 04:29:12;;;;;;;4.45;3.33;;;23.60;72.80;;;;;;2411191;55;21514;-70
2022/08/27 04:31:39;;;;;;;6.53;4.15;;;23.60;73.50;;;;;;2266242;55;20940;-71
2022/08/27 04:34:06;;;;;;;4.90;4.12;;;23.60;73.50;;;;;;2319636;55;21023;-71
2022/08/27 04:36:32;;;;;;;5.97;4.10;;;23.60;73.50;;;;;;2266269;55;20967;-71
2022/08/27 04:38:59;;;;;;;4.70;3.90;;;23.60;73.50;;;;;;2266647;55;20996;-70
2022/08/27 04:41:26;;;;;;;6.20;4.75;;;23.60;73.40;;;;;;2266335;55;21517;-70
2022/08/27 04:43:55;;;;;;;5.62;4.60;;;23.60;73.40;;;;;;2267675;55;21712;-71
2022/08/27 04:46:43;;;;;;;5.60;4.68;;;23.60;73.40;;;;;;2491625;55;21504;-70
2022/08/27 04:49:13;;;;;;;6.75;4.43;;;23.70;73.00;;;;;;2265926;55;21008;-71
2022/08/27 04:51:42;;;;;;;7.07;5.07;;;23.70;73.60;;;;;;2264465;55;20951;-71
2022/08/27 04:54:11;;;;;;;6.37;4.78;;;23.70;73.60;;;;;;2385439;55;21603;-70
2022/08/27 04:56:38;;;;;;;6.20;4.85;;;23.70;73.70;;;;;;2310356;55;21024;-70
2022/08/27 04:59:05;;;;;;;6.35;4.62;;;23.70;73.60;;;;;;2263744;56;21533;-70
2022/08/27 05:01:31;;;;;;;5.90;4.50;;;23.70;73.70;;;;;;2266184;55;21442;-70
2022/08/27 05:04:06;;;;;;;6.47;3.97;;;23.70;73.70;;;;;;2259862;55;20966;-71
2022/08/27 05:06:33;;;;;;;6.28;4.60;;;23.70;73.30;;;;;;2266221;55;21059;-70
2022/08/27 05:08:59;;;;;;;6.50;4.97;;;23.70;73.70;;;;;;2260765;55;20998;-70
2022/08/27 05:11:30;;;;;;;6.32;4.85;;;23.70;73.70;;;;;;2492341;55;20933;-70
2022/08/27 05:14:28;;;;;;;6.18;4.70;;;23.70;73.70;;;;;;2262515;56;20997;-70
2022/08/27 05:16:56;;;;;;;5.90;4.50;;;23.70;73.00;;;;;;2273005;55;21023;-70
2022/08/27 05:19:24;;;;;;;6.35;4.53;;;23.70;73.60;;;;;;2266561;55;20967;-70
2022/08/27 05:21:51;;;;;;;5.68;4.37;;;23.70;73.70;;;;;;2264280;55;21497;-71
2022/08/27 05:24:17;;;;;;;5.45;4.45;;;23.70;73.70;;;;;;2266796;56;20963;-70
2022/08/27 05:26:44;;;;;;;6.68;5.28;;;23.70;73.80;;;;;;2265883;55;21754;-69
2022/08/27 05:29:43;;;;;;;6.65;5.18;;;23.70;73.80;;;;;;2268019;55;20965;-70
2022/08/27 05:32:10;;;;;;;5.60;4.18;;;23.70;73.10;;;;;;2266074;55;20988;-70
2022/08/27 05:34:37;;;;;;;6.72;4.82;;;23.80;73.90;;;;;;2267604;55;21024;-70
2022/08/27 05:37:03;;;;;;;5.93;4.40;;;23.80;73.90;;;;;;2265221;55;20964;-70
2022/08/27 05:39:29;;;;;;;6.47;4.75;;;23.80;73.90;;;;;;2269331;55;21503;-69
2022/08/27 05:41:56;;;;;;;6.35;4.95;;;23.80;73.90;;;;;;2267737;56;20944;-69
2022/08/27 05:44:25;;;;;;;6.05;4.57;;;23.80;73.80;;;;;;2260691;55;20971;-69
2022/08/27 05:47:07;;;;;;;5.35;4.20;;;23.80;73.60;;;;;;2262796;55;21004;-71
2022/08/27 05:49:34;;;;;;;6.57;4.72;;;23.90;73.80;;;;;;2264299;55;20969;-70
2022/08/27 05:52:00;;;;;;;8.32;5.30;;;23.90;73.80;;;;;;2263153;56;21028;-70
2022/08/27 05:54:27;;;;;;;6.20;4.85;;;23.90;73.80;;;;;;2268008;56;20908;-69
2022/08/27 05:57:15;;;;;;;5.50;4.60;;;23.90;73.80;;;;;;2336034;55;21023;-70
2022/08/27 06:02:27;;;;;;;7.10;4.78;;;23.90;73.80;;;;;;2265071;55;21055;-71
2022/08/27 06:04:55;;;;;;;6.12;5.00;;;23.90;73.80;;;;;;2259801;55;20986;-70
2022/08/27 06:07:21;;;;;;;6.70;5.20;;;23.90;73.80;;;;;;2265743;55;21130;-72
2022/08/27 06:09:50;;;;;;;6.93;4.95;;;24.00;73.90;;;;;;2260781;55;21011;-70
2022/08/27 06:12:16;;;;;;;7.37;5.05;;;24.00;73.90;;;;;;2419216;55;21807;-70
2022/08/27 06:14:45;;;;;;;6.18;5.22;;;24.00;73.90;;;;;;2265880;55;21116;-71
2022/08/27 06:17:11;;;;;;;5.53;4.68;;;24.00;73.90;;;;;;2319545;55;20963;-71
2022/08/27 06:23:08;;;;;;;6.47;5.40;;;24.10;73.40;;;;;;2266526;55;21154;-70
2022/08/27 06:25:39;;;;;;;6.47;5.05;;;24.10;74.00;;;;;;2262981;55;21009;-70
2022/08/27 06:31:34;;;;;;;6.80;5.20;;;24.10;73.30;;;;;;2265435;55;21004;-70
2022/08/27 06:37:32;;;;;;;5.35;4.28;;;24.10;73.40;;;;;;2266715;55;21825;-71
2022/08/27 06:40:00;;;;;;;5.95;3.83;;;24.10;73.90;;;;;;2263147;55;20991;-72
2022/08/27 06:42:26;;;;;;;5.40;4.47;;;24.20;73.90;;;;;;2261681;55;20976;-73
2022/08/27 06:44:55;;;;;;;6.55;5.15;;;24.20;73.90;;;;;;2429083;55;21559;-74
2022/08/27 06:47:25;;;;;;;5.37;4.55;;;24.20;73.80;;;;;;2266899;55;21035;-72
2022/08/27 06:49:51;;;;;;;7.93;5.47;;;24.20;73.70;;;;;;2244402;56;21027;-73
2022/08/27 06:52:20;;;;;;;6.90;5.07;;;24.10;73.60;;;;;;2269657;55;21543;-74
2022/08/27 06:54:53;;;;;;;6.47;5.00;;;24.20;74.50;;;;;;2310521;55;21052;-76
2022/08/27 06:57:19;;;;;;;7.90;5.60;;;24.20;73.60;;;;;;2267324;55;20955;-73
2022/08/27 06:59:46;;;;;;;8.45;6.87;;;24.10;73.80;;;;;;2267577;55;20956;-72
2022/08/27 07:02:13;;;;;;;8.52;7.18;;;24.20;74.00;;;;;;2314048;55;20964;-73
2022/08/27 07:04:46;;;;;;;8.32;5.82;;;24.20;74.10;;;;;;2256976;56;20975;-72
2022/08/27 07:07:27;;;;;;;8.70;6.25;;;24.20;73.90;;;;;;2266560;55;21784;-72
2022/08/27 07:09:54;;;;;;;8.30;6.07;;;24.20;73.70;;;;;;2245371;56;21487;-72
2022/08/27 07:12:20;;;;;;;8.70;6.90;;;24.30;74.30;;;;;;2259966;55;21023;-72
2022/08/27 07:14:46;;;;;;;9.25;6.30;;;24.30;74.40;;;;;;2372894;55;20947;-72
2022/08/27 07:17:16;;;;;;;8.77;6.28;;;24.30;74.40;;;;;;2266177;55;21020;-71
2022/08/27 07:19:42;;;;;;;9.98;7.40;;;24.30;75.20;;;;;;2263668;55;20971;-72
2022/08/27 07:22:11;;;;;;;9.70;7.57;;;24.30;74.50;;;;;;2253387;55;21159;-72
2022/08/27 07:24:38;;;;;;;8.65;6.60;;;24.40;74.60;;;;;;2266908;55;21515;-71
2022/08/27 07:27:04;;;;;;;10.15;7.12;;;24.40;74.60;;;;;;2267796;55;21536;-72
2022/08/27 07:29:31;;;;;;;9.85;7.07;;;24.40;74.60;;;;;;2264321;56;20972;-71
2022/08/27 07:31:58;;;;;;;9.50;7.20;;;24.40;74.50;;;;;;2263072;56;21417;-71
2022/08/27 07:34:25;;;;;;;11.10;8.27;;;24.40;74.50;;;;;;2266543;55;21675;-74
2022/08/27 07:36:51;;;;;;;10.43;8.25;;;24.50;74.60;;;;;;2272149;55;20959;-72
2022/08/27 07:39:18;;;;;;;9.48;7.10;;;24.50;74.60;;;;;;2266748;55;20987;-74
2022/08/27 07:44:28;;;;;;;9.05;7.00;;;24.60;74.70;;;;;;2243566;56;21757;-73
2022/08/27 07:46:57;;;;;;;8.75;6.15;;;24.60;74.70;;;;;;2265382;55;21544;-72
2022/08/27 07:49:26;;;;;;;9.82;7.62;;;24.60;74.60;;;;;;2266113;55;21008;-72
2022/08/27 07:51:52;;;;;;;10.20;7.90;;;24.60;74.30;;;;;;2265466;55;21026;-73
2022/08/27 07:54:36;;;;;;;9.38;7.30;;;24.60;74.20;;;;;;2283478;55;21576;-72
2022/08/27 07:57:03;;;;;;;9.27;7.10;;;24.70;73.40;;;;;;2493524;55;20995;-72
2022/08/27 07:59:29;;;;;;;9.82;7.45;;;24.70;74.00;;;;;;2342401;55;20963;-72
2022/08/27 08:01:56;;;;;;;11.52;8.40;;;24.70;73.90;;;;;;2265934;55;21068;-72
2022/08/27 08:04:22;;;;;;;9.43;6.93;;;24.70;73.80;;;;;;2265786;55;21037;-72
2022/08/27 08:06:49;;;;;;;11.25;8.25;;;24.70;73.90;;;;;;2266012;55;21040;-72
2022/08/27 08:09:15;;;;;;;10.23;8.18;;;24.70;73.90;;;;;;2261164;55;20959;-75
2022/08/27 08:11:42;;;;;;;9.50;7.60;;;24.70;73.90;;;;;;2300936;55;21826;-74
2022/08/27 08:14:08;;;;;;;10.15;7.57;;;24.80;74.00;;;;;;2353886;55;20979;-72
2022/08/27 08:16:34;;;;;;;11.43;8.57;;;24.80;73.90;;;;;;2264778;55;21043;-74
2022/08/27 08:19:01;;;;;;;9.80;7.90;;;24.80;73.80;;;;;;2270981;55;21851;-72
2022/08/27 08:21:27;;;;;;;8.80;7.30;;;24.80;73.80;;;;;;2268223;55;21062;-73
2022/08/27 08:23:54;;;;;;;10.82;7.72;;;24.80;73.60;;;;;;2262738;55;21023;-71
2022/08/27 08:26:21;;;;;;;10.88;8.27;;;24.80;73.50;;;;;;2266629;55;20999;-70
2022/08/27 08:28:48;;;;;;;9.98;7.62;;;24.80;73.50;;;;;;2271542;55;21900;-73
2022/08/27 08:31:14;;;;;;;10.00;7.57;;;24.80;73.60;;;;;;2263170;55;21012;-73
2022/08/27 08:33:40;;;;;;;10.93;8.75;;;24.80;73.60;;;;;;2266659;55;21043;-73
2022/08/27 08:36:11;;;;;;;12.40;8.65;;;24.90;73.80;;;;;;2271160;55;21020;-73
2022/08/27 08:38:38;;;;;;;11.60;8.20;;;24.90;73.60;;;;;;2455727;55;20987;-71
2022/08/27 08:41:05;;;;;;;12.95;8.52;;;24.90;73.60;;;;;;2371094;55;20964;-72
2022/08/27 08:43:34;;;;;;;10.00;8.48;;;24.90;73.60;;;;;;2266235;55;21119;-74
2022/08/27 08:46:49;;;;;;;10.93;8.07;;;25.00;73.50;;;;;;2266141;55;20959;-75
2022/08/27 08:50:10;;;;;;;11.25;8.93;;;25.00;72.60;;;;;;2266712;55;21042;-76
2022/08/27 08:54:21;;;;;;;13.82;9.95;;;25.00;72.60;;;;;;2319008;55;20943;-73
2022/08/27 08:57:01;;;;;;;10.00;7.47;;;25.00;72.80;;;;;;2266589;55;20964;-74
2022/08/27 08:59:31;;;;;;;10.30;8.38;;;25.10;73.50;;;;;;2286735;55;20987;-73
2022/08/27 09:01:58;;;;;;;9.43;7.68;;;25.10;73.50;;;;;;2266605;55;20979;-76
2022/08/27 09:04:25;;;;;;;10.73;8.13;;;25.10;73.50;;;;;;2266151;55;20994;-72
2022/08/27 09:09:12;;;;;;;10.93;8.20;;;25.10;73.50;;;;;;2265522;55;21447;-73
2022/08/27 09:11:41;;;;;;;9.82;7.57;;;25.20;72.60;;;;;;2266107;55;21005;-72
2022/08/27 09:14:39;;;;;;;11.50;8.15;;;25.20;74.10;;;;;;2264205;56;20963;-72
2022/08/27 09:17:05;;;;;;;10.82;7.93;;;25.20;72.60;;;;;;2266025;55;21006;-70
2022/08/27 09:19:33;;;;;;;11.15;8.13;;;25.20;73.40;;;;;;2376333;55;21441;-70
2022/08/27 09:22:18;;;;;;;11.65;9.02;;;25.20;73.20;;;;;;2286266;55;20989;-72
2022/08/27 09:25:13;;;;;;;11.00;8.80;;;25.30;72.90;;;;;;2303111;55;20960;-72
2022/08/27 09:27:41;;;;;;;10.75;7.87;;;25.30;72.30;;;;;;2265943;55;20963;-71
2022/08/27 09:30:10;;;;;;;9.30;7.55;;;25.30;73.30;;;;;;2276541;55;21374;-71
2022/08/27 09:32:38;;;;;;;9.85;8.05;;;25.40;73.40;;;;;;2265583;55;20972;-72
2022/08/27 09:35:07;;;;;;;11.82;9.55;;;25.40;73.60;;;;;;2264426;55;20958;-70
2022/08/27 09:37:41;;;;;;;9.65;8.20;;;25.40;73.40;;;;;;2261010;55;20968;-70
2022/08/27 09:40:24;;;;;;;12.32;9.35;;;25.50;73.00;;;;;;2266009;55;21793;-70
2022/08/27 09:43:04;;;;;;;9.80;8.07;;;25.50;73.00;;;;;;2269657;55;21015;-73
2022/08/27 09:45:32;;;;;;;10.88;8.73;;;25.60;73.60;;;;;;2266702;55;20997;-70
2022/08/27 09:48:08;;;;;;;10.15;8.82;;;25.60;73.40;;;;;;2275089;55;21071;-70
2022/08/27 09:50:41;;;;;;;9.32;7.53;;;25.70;72.90;;;;;;2265997;55;20932;-71
2022/08/27 09:53:44;;;;;;;11.38;8.20;;;25.70;73.00;;;;;;2266408;55;21008;-70
2022/08/27 09:56:47;;;;;;;10.02;8.00;;;25.80;72.20;;;;;;2264345;56;20985;-74
2022/08/27 09:59:21;;;;;;;;;;;25.80;72.30;;;;;;2269815;55;21599;-71
2022/08/27 10:02:34;;;;;;;8.70;6.75;;;25.90;71.90;;;;;;2313955;55;20082;-72
2022/08/27 10:05:02;;;;;;;11.05;7.87;;;25.90;72.50;;;;;;2266597;55;20987;-71
2022/08/27 10:07:54;;;;;;;9.18;7.43;;;26.00;72.70;;;;;;2301759;55;21015;-73
2022/08/27 10:10:54;;;;;;;12.18;8.32;;;25.90;71.50;;;;;;2266323;55;21090;-70
2022/08/27 10:13:37;;;;;;;12.10;9.38;;;25.90;71.30;;;;;;2266601;55;20999;-71
2022/08/27 10:19:40;;;;;;;12.60;9.77;;;25.90;71.90;;;;;;2266338;55;20991;-72
2022/08/27 10:22:36;;;;;;;9.00;7.68;;;26.00;71.00;;;;;;2269085;55;20969;-71
2022/08/27 10:26:03;;;;;;;9.45;7.43;;;26.00;71.00;;;;;;2262644;55;20991;-71
2022/08/27 10:30:24;;;;;;;11.82;9.68;;;25.90;71.10;;;;;;2267381;55;20980;-71
2022/08/27 10:36:05;;;;;;;12.00;9.75;;;25.90;71.00;;;;;;2266645;55;22530;-72
2022/08/27 10:38:53;;;;;;;12.40;9.35;;;26.00;71.50;;;;;;2348099;55;21016;-72
2022/08/27 10:41:28;;;;;;;12.27;10.02;;;26.00;72.10;;;;;;2266100;55;21094;-72
2022/08/27 10:45:03;;;;;;;11.52;9.93;;;26.00;72.40;;;;;;2268035;55;21436;-72
2022/08/27 10:48:39;;;;;;;13.85;11.00;;;26.00;71.80;;;;;;2319923;55;20976;-73
2022/08/27 10:51:52;;;;;;;14.98;10.48;;;26.10;71.50;;;;;;2266516;55;20940;-72
2022/08/27 10:54:31;;;;;;;14.98;12.00;;;26.20;71.40;;;;;;2266620;55;20960;-73
2022/08/27 10:58:05;;;;;;;12.60;10.52;;;26.20;71.90;;;;;;2264065;55;20948;-73
2022/08/27 11:05:41;;;;;;;12.80;10.88;;;26.30;71.00;;;;;;2245837;56;20957;-73
2022/08/27 11:08:13;;;;;;;12.77;8.75;;;26.40;71.40;;;;;;2266289;55;21052;-72
2022/08/27 11:10:42;;;;;;;13.00;9.40;;;26.40;71.50;;;;;;2268487;55;21854;-72
2022/08/27 11:13:16;;;;;;;14.32;10.63;;;26.40;71.60;;;;;;2263513;55;21019;-71
2022/08/27 11:15:44;;;;;;;14.38;11.32;;;26.40;71.00;;;;;;2345177;55;21053;-71
2022/08/27 11:18:26;;;;;;;15.93;11.23;;;26.40;71.20;;;;;;2265715;55;21087;-72
2022/08/27 11:22:02;;;;;;;14.07;10.48;;;26.50;70.40;;;;;;2263808;55;21710;-70
2022/08/27 11:24:47;;;;;;;12.37;9.93;;;26.50;70.20;;;;;;2266883;55;20972;-72
2022/08/27 11:27:18;;;;;;;14.18;11.38;;;26.40;69.60;;;;;;2267851;55;21612;-71
2022/08/27 11:29:48;;;;;;;15.35;12.57;;;26.40;70.10;;;;;;2262367;55;21095;-71
2022/08/27 11:32:48;;;;;;;13.88;11.23;;;26.30;69.70;;;;;;2266472;56;20973;-71
2022/08/27 11:35:21;;;;;;;14.07;11.38;;;26.30;68.80;;;;;;2262327;56;20932;-71
2022/08/27 11:38:26;;;;;;;14.65;11.35;;;26.30;69.40;;;;;;2487724;55;20980;-70
2022/08/27 11:44:03;;;;;;;11.93;9.82;;;26.30;69.00;;;;;;2265163;55;20947;-72
2022/08/27 11:46:48;;;;;;;14.15;9.38;;;26.20;69.60;;;;;;2265396;55;20991;-72
2022/08/27 11:49:34;;;;;;;11.75;9.43;;;26.30;70.20;;;;;;2495649;55;20960;-72
2022/08/27 11:52:05;;;;;;;10.40;8.55;;;26.30;70.10;;;;;;2265660;55;20963;-71
2022/08/27 11:54:49;;;;;;;11.20;9.60;;;26.30;70.80;;;;;;2266108;55;20980;-72
2022/08/27 11:57:25;;;;;;;12.00;9.02;;;26.30;70.10;;;;;;2266194;55;20976;-72
2022/08/27 11:59:52;;;;;;;11.27;9.07;;;26.30;70.90;;;;;;2266540;55;21857;-72
2022/08/27 12:02:26;;;;;;;8.50;7.50;;;26.30;71.00;;;;;;2273275;55;21023;-73
2022/08/27 12:04:56;;;;;;;12.13;8.82;;;26.30;70.80;;;;;;2353162;55;20972;-71
2022/08/27 12:07:29;;;;;;;11.52;8.65;;;26.30;71.20;;;;;;2265868;55;21070;-74
2022/08/27 12:10:15;;;;;;;10.75;9.45;;;26.40;71.10;;;;;;2265445;55;20943;-75
2022/08/27 12:13:11;;;;;;;10.45;8.00;;;26.50;71.00;;;;;;2265902;55;20997;-73
2022/08/27 12:16:39;;;;;;;9.73;8.20;;;26.50;71.20;;;;;;2264829;55;20971;-71
2022/08/27 12:22:26;;;;;;;8.25;7.18;;;26.60;70.70;;;;;;2266116;55;20992;-71
2022/08/27 12:24:56;;;;;;;8.60;7.20;;;26.70;70.90;;;;;;2265668;55;21015;-71
2022/08/27 12:27:33;;;;;;;10.15;7.97;;;26.80;71.40;;;;;;2381716;55;21268;-73
2022/08/27 12:31:53;;;;;;;11.07;7.85;;;26.90;70.90;;;;;;2264842;55;20947;-72
2022/08/27 12:34:23;;;;;;;8.40;7.00;;;26.90;69.80;;;;;;2266116;56;21515;-71
2022/08/27 12:36:51;;;;;;;8.32;6.25;;;27.00;70.80;;;;;;2264478;56;21318;-71
2022/08/27 12:39:19;;;;;;;7.28;6.22;;;27.00;71.00;;;;;;2263291;56;20972;-72
2022/08/27 12:41:46;;;;;;;7.97;6.47;;;27.00;70.70;;;;;;2264762;55;20985;-75
2022/08/27 12:44:21;;;;;;;7.00;5.75;;;27.00;70.40;;;;;;2265256;55;21736;-72
2022/08/27 12:46:58;;;;;;;7.12;5.82;;;27.10;70.70;;;;;;2269985;55;21488;-72
2022/08/27 12:49:27;;;;;;;6.55;5.72;;;27.20;70.50;;;;;;2244715;56;20979;-72
2022/08/27 12:51:54;;;;;;;7.55;6.60;;;27.20;70.30;;;;;;2268184;55;21366;-71
2022/08/27 12:54:55;;;;;;;6.57;5.60;;;27.20;70.10;;;;;;2292297;55;21529;-72
2022/08/27 12:57:46;;;;;;;5.62;4.75;;;27.20;69.00;;;;;;2266448;55;21098;-72
2022/08/27 13:00:18;;;;;;;6.10;5.10;;;27.30;68.70;;;;;;2288939;55;20967;-71
2022/08/27 13:03:01;;;;;;;6.03;4.78;;;27.30;69.60;;;;;;2266260;55;20967;-72
2022/08/27 13:05:41;;;;;;;5.60;4.62;;;27.40;69.50;;;;;;2477716;55;21101;-73
2022/08/27 13:08:18;;;;;;;5.05;4.32;;;27.40;69.20;;;;;;2262679;55;22066;-72
2022/08/27 13:10:45;;;;;;;5.10;4.10;;;27.50;69.00;;;;;;2265429;55;21008;-72
2022/08/27 13:13:15;;;;;;;4.57;3.87;;;27.50;69.80;;;;;;2265625;55;20964;-75
2022/08/27 13:15:55;;;;;;;5.32;4.30;;;27.50;69.70;;;;;;2457166;55;20956;-72
2022/08/27 13:18:22;;;;;;;5.25;4.18;;;27.60;70.10;;;;;;2266057;55;21123;-72
2022/08/27 13:20:50;;;;;;;3.92;3.15;;;27.60;69.90;;;;;;2265668;56;21684;-73
2022/08/27 13:23:22;;;;;;;5.10;3.90;;;27.60;69.30;;;;;;2433825;55;21123;-71
2022/08/27 13:26:08;;;;;;;4.07;3.37;;;27.70;69.00;;;;;;2263898;55;20996;-73
2022/08/27 13:28:37;;;;;;;3.90;2.53;;;27.70;68.60;;;;;;2269675;55;21059;-72
2022/08/27 13:31:05;;;;;;;3.30;2.50;;;27.70;69.10;;;;;;2266148;55;20959;-72
2022/08/27 13:33:33;;;;;;;4.55;2.33;;;27.70;69.00;;;;;;2274280;55;20971;-72
2022/08/27 13:35:59;;;;;;;3.22;2.10;;;27.80;68.80;;;;;;2454542;55;22022;-73
2022/08/27 13:38:33;;;;;;;3.75;2.78;;;27.80;68.40;;;;;;2266184;55;20955;-72
2022/08/27 13:41:10;;;;;;;3.87;2.97;;;27.90;67.40;;;;;;2267145;55;21015;-72
2022/08/27 13:43:39;;;;;;;5.25;2.70;;;27.90;67.50;;;;;;2267957;55;21047;-72
2022/08/27 13:46:13;;;;;;;4.12;2.75;;;27.90;68.20;;;;;;2312448;55;21329;-72
2022/08/27 13:48:41;;;;;;;3.55;2.83;;;27.90;67.90;;;;;;2266953;55;20944;-71
2022/08/27 13:51:08;;;;;;;4.22;3.05;;;27.90;68.00;;;;;;2262355;56;21413;-72
2022/08/27 13:56:33;;;;;;;3.95;2.85;;;27.90;67.90;;;;;;2270330;55;20963;-72
2022/08/27 14:02:31;;;;;;;4.22;3.03;;;27.90;67.00;;;;;;2264404;55;21615;-72
2022/08/27 14:05:14;;;;;;;3.75;2.87;;;28.00;67.40;;;;;;2264001;56;20944;-72
2022/08/27 14:07:47;;;;;;;3.67;3.00;;;28.00;66.30;;;;;;2261628;56;20995;-71
2022/08/27 14:11:02;;;;;;;3.60;2.90;;;28.00;66.40;;;;;;2451371;55;21098;-74
2022/08/27 14:13:44;;;;;;;4.47;3.03;;;28.00;65.80;;;;;;2266147;55;20952;-72
2022/08/27 14:16:31;;;;;;;3.85;2.97;;;28.00;66.50;;;;;;2267122;55;21431;-71
2022/08/27 14:19:09;;;;;;;3.72;2.90;;;28.00;66.10;;;;;;2262694;55;21437;-74